Main page
METAR-TAF:

METAR-TAF

Airports :

Lyon–Bron Airport

Lyon, France

latitude: 45-43N, longitude: 004-57E, elevation: 200 m

Current weather observation

The report was made 30 minutes ago, at 19:00 UTC
Temperature 29°C
Humidity 35%
Pressure 1016 hPa
Visibility 10 km or more
no clouds below 1500 m and no cumulonimbus

METAR: LFLY 151900Z AUTO /////KT CAVOK 29/12 Q1016

Time: 21:30 (19:30 UTC)

Forecast

The report was made 2 hours and 30 minutes ago, at 17:00 UTC
Forecast valid from 15 at 18 UTC to 16 at 18 UTC
Wind 5 kt from the East/Northeast
Visibility 10 km or more
no clouds below 1500 m and no cumulonimbus
Becoming
from 16 at 06 UTC to 16 at 08 UTC
Wind 6 kt from the South/Southeast

TAF: LFLY 151700Z 1518/1618 06005KT CAVOK BECMG 1606/1608 16006KT

Weather observations and forecasts of more than 4000 airports (METAR and TAF reports).

The available stations are represented by yellow and red dots on the map.

Hover mouse over dot to see the name of the station.

Then click to see weather observations and forecasts.

To change the map : click on the green buttons with a black cross to zoom in, on the green button with a dash to zoom out, or on the green arrows for adjacent maps.


METAR-TAF: